createdAt,value
2023-05-02T00:02:00.142Z,5.20
2023-05-02T00:04:27.660Z,5.18
2023-05-02T00:06:54.976Z,5.17
2023-05-02T00:09:22.199Z,5.17
2023-05-02T00:11:49.456Z,5.17
2023-05-02T00:14:16.664Z,5.16
2023-05-02T00:16:43.889Z,5.15
2023-05-02T00:19:11.115Z,5.14
2023-05-02T00:21:38.381Z,5.12
2023-05-02T00:24:06.091Z,5.09
2023-05-02T00:26:33.322Z,5.08
2023-05-02T00:29:01.448Z,5.06
2023-05-02T00:31:28.768Z,5.06
2023-05-02T00:33:56.451Z,5.06
2023-05-02T00:36:23.669Z,5.04
2023-05-02T00:38:51.413Z,5.02
2023-05-02T00:41:18.723Z,4.99
2023-05-02T00:43:46.002Z,4.97
2023-05-02T00:46:13.410Z,4.94
2023-05-02T00:48:40.999Z,4.94
2023-05-02T00:51:09.277Z,4.94
2023-05-02T00:53:36.479Z,4.93
2023-05-02T00:56:03.957Z,4.91
2023-05-02T00:58:31.203Z,4.90
2023-05-02T01:01:22.572Z,4.87
2023-05-02T01:04:02.572Z,4.87
2023-05-02T01:06:42.372Z,4.86
2023-05-02T01:09:41.268Z,4.83
2023-05-02T01:12:29.206Z,4.80
2023-05-02T01:14:56.516Z,4.77
2023-05-02T01:17:26.606Z,4.74
2023-05-02T01:19:57.207Z,4.72
2023-05-02T01:22:25.103Z,4.70
2023-05-02T01:25:00.802Z,4.69
2023-05-02T01:27:34.255Z,4.68
2023-05-02T01:30:02.079Z,4.67
2023-05-02T01:32:31.226Z,4.65
2023-05-02T01:34:58.555Z,4.63
2023-05-02T01:37:26.379Z,4.61
2023-05-02T01:39:54.654Z,4.60
2023-05-02T01:42:21.875Z,4.59
2023-05-02T01:44:49.109Z,4.59
2023-05-02T01:47:16.445Z,4.56
2023-05-02T01:49:44.290Z,4.53
2023-05-02T01:52:11.904Z,4.51
2023-05-02T01:54:39.159Z,4.48
2023-05-02T01:57:06.710Z,4.47
2023-05-02T01:59:34.010Z,4.47
2023-05-02T02:02:02.050Z,4.49
2023-05-02T02:04:29.306Z,4.53
2023-05-02T02:07:03.979Z,4.53
2023-05-02T02:09:31.546Z,4.52
2023-05-02T02:12:20.663Z,4.51
2023-05-02T02:14:51.373Z,4.48
2023-05-02T02:17:26.211Z,4.45
2023-05-02T02:19:54.567Z,4.41
2023-05-02T02:22:22.008Z,4.38
2023-05-02T02:24:49.235Z,4.37
2023-05-02T02:27:16.561Z,4.36
2023-05-02T02:29:44.195Z,4.35
2023-05-02T02:32:13.128Z,4.33
2023-05-02T02:34:41.277Z,4.30
2023-05-02T02:37:13.438Z,4.26
2023-05-02T02:40:00.890Z,4.21
2023-05-02T02:42:43.915Z,4.17
2023-05-02T02:45:30.707Z,4.17
2023-05-02T02:48:16.691Z,4.18
2023-05-02T02:51:02.434Z,4.20
2023-05-02T02:53:54.857Z,4.22
2023-05-02T02:56:29.558Z,4.30
2023-05-02T02:59:08.317Z,4.36
2023-05-02T03:01:36.111Z,4.41
2023-05-02T03:04:03.620Z,4.44
2023-05-02T03:06:31.240Z,4.45
2023-05-02T03:08:58.961Z,4.47
2023-05-02T03:11:29.532Z,4.49
2023-05-02T03:13:57.618Z,4.51
2023-05-02T03:16:43.318Z,4.54
2023-05-02T03:19:12.846Z,4.59
2023-05-02T03:21:40.138Z,4.63
2023-05-02T03:24:11.858Z,4.68
2023-05-02T03:26:39.220Z,4.74
2023-05-02T03:29:07.276Z,4.81
2023-05-02T03:31:36.599Z,4.87
2023-05-02T03:34:04.192Z,4.94
2023-05-02T03:36:31.805Z,5.03
2023-05-02T03:38:59.028Z,5.09
2023-05-02T03:41:27.093Z,5.16
2023-05-02T03:43:59.556Z,5.24
2023-05-02T03:46:27.062Z,5.33
2023-05-02T03:48:54.691Z,5.42
2023-05-02T03:51:22.024Z,5.48
2023-05-02T03:53:49.796Z,5.53
2023-05-02T03:56:20.461Z,5.58
2023-05-02T03:58:51.192Z,5.65
2023-05-02T04:01:19.714Z,5.74
2023-05-02T04:03:50.740Z,5.81
2023-05-02T04:06:19.386Z,5.88
2023-05-02T04:08:52.380Z,5.99
2023-05-02T04:11:20.565Z,6.09
2023-05-02T04:13:48.002Z,6.19
2023-05-02T04:16:15.486Z,6.28
2023-05-02T04:18:43.212Z,6.37
2023-05-02T04:21:10.685Z,6.48
2023-05-02T04:23:38.840Z,6.60
2023-05-02T04:26:06.960Z,6.73
2023-05-02T04:28:43.529Z,6.86
2023-05-02T04:31:13.377Z,6.97
2023-05-02T04:33:41.410Z,7.09
2023-05-02T04:36:10.714Z,7.19
2023-05-02T04:38:39.849Z,7.32
2023-05-02T04:41:09.264Z,7.45
2023-05-02T04:43:42.068Z,7.60
2023-05-02T04:46:10.324Z,7.78
2023-05-02T04:48:42.417Z,7.96
2023-05-02T04:51:10.726Z,8.17
2023-05-02T04:53:38.168Z,8.36
2023-05-02T04:56:05.985Z,8.55
2023-05-02T04:58:35.737Z,8.72
2023-05-02T05:01:06.590Z,8.89
2023-05-02T05:03:34.733Z,9.06
2023-05-02T05:06:02.826Z,9.24
2023-05-02T05:08:30.441Z,9.43
2023-05-02T05:10:57.943Z,9.60
2023-05-02T05:13:25.785Z,9.79
2023-05-02T05:15:53.385Z,9.97
2023-05-02T05:18:24.096Z,10.13
2023-05-02T05:20:51.316Z,10.32
2023-05-02T05:23:18.532Z,10.51
2023-05-02T05:25:46.045Z,10.68
2023-05-02T05:28:16.215Z,10.86
2023-05-02T05:30:43.512Z,11.04
2023-05-02T05:33:13.590Z,11.17
2023-05-02T05:35:41.116Z,11.26
2023-05-02T05:38:08.512Z,11.38
2023-05-02T05:40:37.790Z,11.51
2023-05-02T05:43:06.192Z,11.67
2023-05-02T05:45:37.100Z,11.85
2023-05-02T05:48:05.370Z,12.06
2023-05-02T05:50:36.654Z,12.21
2023-05-02T05:53:03.982Z,12.32
2023-05-02T05:55:31.338Z,12.44
2023-05-02T05:57:59.121Z,12.47
2023-05-02T06:00:26.741Z,12.49
2023-05-02T06:02:54.265Z,12.62
2023-05-02T06:05:30.890Z,12.88
2023-05-02T06:07:58.723Z,13.17
2023-05-02T06:10:27.048Z,13.36
2023-05-02T06:12:54.885Z,13.50
2023-05-02T06:15:26.878Z,13.64
2023-05-02T06:17:54.292Z,13.79
2023-05-02T06:20:21.685Z,13.94
2023-05-02T06:22:49.029Z,14.05
2023-05-02T06:25:16.577Z,14.18
2023-05-02T06:27:43.828Z,14.31
2023-05-02T06:30:11.494Z,14.52
2023-05-02T06:32:38.986Z,14.66
2023-05-02T06:35:07.109Z,14.80
2023-05-02T06:37:35.881Z,14.97
2023-05-02T06:40:03.722Z,15.04
2023-05-02T06:42:31.637Z,15.09
2023-05-02T06:44:58.885Z,15.22
2023-05-02T06:47:26.572Z,15.41
2023-05-02T06:49:54.096Z,15.57
2023-05-02T06:52:21.382Z,15.70
2023-05-02T06:54:48.675Z,15.84
2023-05-02T06:57:16.078Z,15.96
2023-05-02T07:12:12.988Z,16.06
2023-05-02T07:14:40.171Z,15.99
2023-05-02T07:17:09.850Z,16.10
2023-05-02T07:19:37.137Z,16.27
2023-05-02T07:22:04.266Z,16.43
2023-05-02T07:24:31.462Z,16.50
2023-05-02T07:26:58.656Z,16.41
2023-05-02T07:29:25.718Z,16.31
2023-05-02T07:31:53.224Z,16.39
2023-05-02T07:34:20.501Z,16.44
2023-05-02T07:36:48.524Z,16.50
2023-05-02T07:39:16.905Z,16.62
2023-05-02T08:04:27.246Z,17.99
2023-05-02T08:06:55.968Z,18.44
2023-05-02T08:09:23.553Z,18.72
2023-05-02T08:11:50.882Z,18.95
2023-05-02T08:14:18.242Z,18.98
2023-05-02T08:16:46.633Z,18.95
2023-05-02T08:19:15.788Z,18.93
2023-05-02T08:21:43.069Z,18.78
2023-05-02T08:24:10.530Z,18.86
2023-05-02T08:26:40.809Z,19.09
2023-05-02T08:29:08.152Z,19.38
2023-05-02T08:31:37.472Z,19.65
2023-05-02T08:34:06.191Z,19.87
2023-05-02T08:36:33.561Z,20.02
2023-05-02T08:39:00.968Z,20.01
2023-05-02T08:41:29.180Z,19.86
2023-05-02T08:43:56.496Z,19.68
2023-05-02T08:46:24.100Z,19.75
2023-05-02T08:48:51.377Z,19.84
2023-05-02T08:53:52.727Z,20.09
2023-05-02T08:56:19.976Z,20.30
2023-05-02T08:58:47.407Z,20.52
2023-05-02T09:01:19.382Z,20.75
2023-05-02T09:03:47.745Z,20.95
2023-05-02T09:06:19.872Z,20.99
2023-05-02T09:08:52.704Z,20.97
2023-05-02T09:11:20.062Z,20.99
2023-05-02T09:13:53.972Z,21.05
2023-05-02T09:16:25.964Z,21.22
2023-05-02T09:18:56.054Z,21.50
2023-05-02T09:21:25.637Z,21.59
2023-05-02T09:23:54.838Z,21.51
2023-05-02T09:26:23.908Z,21.41
2023-05-02T09:28:52.758Z,21.39
2023-05-02T09:31:49.846Z,21.30
2023-05-02T09:34:16.594Z,21.28
2023-05-02T09:37:02.105Z,21.42
2023-05-02T09:39:30.166Z,21.56
2023-05-02T09:41:58.261Z,21.58
2023-05-02T09:44:26.970Z,21.55
2023-05-02T09:46:55.635Z,21.54
2023-05-02T09:49:46.157Z,21.54
2023-05-02T09:52:17.817Z,21.53
2023-05-02T09:54:47.566Z,21.37
2023-05-02T09:57:17.858Z,21.33
2023-05-02T09:59:56.624Z,21.21
2023-05-02T10:02:29.001Z,21.29
2023-05-02T10:05:07.313Z,21.40
2023-05-02T10:07:34.645Z,21.42
2023-05-02T10:10:02.067Z,21.53
2023-05-02T10:12:29.413Z,21.62
2023-05-02T10:15:03.798Z,21.53
2023-05-02T10:17:39.924Z,21.38
2023-05-02T10:20:09.262Z,21.27
2023-05-02T10:22:37.137Z,21.32
2023-05-02T10:25:06.847Z,21.39
2023-05-02T10:27:34.516Z,21.53
2023-05-02T10:30:04.643Z,21.72
2023-05-02T10:32:33.123Z,21.86
2023-05-02T10:35:05.071Z,21.93
2023-05-02T10:37:35.570Z,22.05
2023-05-02T10:40:02.897Z,22.14
2023-05-02T10:42:30.389Z,22.22
2023-05-02T10:44:58.324Z,22.28
2023-05-02T10:47:27.567Z,22.28
2023-05-02T10:50:02.274Z,22.31
2023-05-02T10:52:34.559Z,22.25
2023-05-02T10:55:18.283Z,22.12
2023-05-02T10:57:58.468Z,21.96
2023-05-02T11:00:27.146Z,21.70
2023-05-02T11:02:54.490Z,21.56
2023-05-02T11:05:25.800Z,21.60
2023-05-02T11:08:30.464Z,21.80
2023-05-02T11:10:58.212Z,22.06
2023-05-02T11:13:51.374Z,22.30
2023-05-02T11:16:18.784Z,22.56
2023-05-02T11:19:18.513Z,22.65
2023-05-02T11:21:45.821Z,22.53
2023-05-02T11:24:49.497Z,22.58
2023-05-02T11:27:38.233Z,22.64
2023-05-02T11:30:29.381Z,22.65
2023-05-02T11:33:05.959Z,22.67
2023-05-02T11:35:35.288Z,22.67
2023-05-02T11:38:04.054Z,22.43
2023-05-02T11:40:56.943Z,22.13
2023-05-02T11:43:31.272Z,21.91
2023-05-02T11:46:00.371Z,21.73
2023-05-02T11:48:28.328Z,21.70
2023-05-02T11:51:03.832Z,21.87
2023-05-02T11:53:33.081Z,22.07
2023-05-02T11:56:04.698Z,22.16
2023-05-02T11:58:33.879Z,22.15
2023-05-02T12:01:17.613Z,22.10
2023-05-02T12:03:45.663Z,22.17
2023-05-02T12:06:15.267Z,22.29
2023-05-02T12:08:44.267Z,22.39
2023-05-02T12:11:15.971Z,22.49
2023-05-02T12:13:48.159Z,22.45
2023-05-02T12:16:16.746Z,22.11
2023-05-02T12:18:44.907Z,21.70
2023-05-02T12:21:12.759Z,21.60
2023-05-02T12:23:40.165Z,21.67
2023-05-02T12:26:21.838Z,21.80
2023-05-02T12:28:51.148Z,21.94
2023-05-02T12:31:20.211Z,22.06
2023-05-02T12:33:51.218Z,22.19
2023-05-02T12:36:21.853Z,22.29
2023-05-02T12:38:53.836Z,22.17
2023-05-02T12:41:36.497Z,21.96
2023-05-02T12:44:04.299Z,21.92
2023-05-02T12:46:31.982Z,21.95
2023-05-02T12:49:10.001Z,21.91
2023-05-02T12:51:38.097Z,21.88
